sensor_id;sensor_type;location;lat;lon;timestamp;P1;durP1;ratioP1;P2;durP2;ratioP2
52320;SDS011;38261;54.090;13.382;2024-02-16T00:00:14;9.30;;;5.60;;
52320;SDS011;38261;54.090;13.382;2024-02-16T00:01:38;8.10;;;5.23;;
52320;SDS011;38261;54.090;13.382;2024-02-16T00:03:00;10.77;;;6.50;;
52320;SDS011;38261;54.090;13.382;2024-02-16T00:04:22;7.67;;;6.57;;
52320;SDS011;38261;54.090;13.382;2024-02-16T00:05:45;9.10;;;5.63;;
52320;SDS011;38261;54.090;13.382;2024-02-16T00:07:08;7.77;;;5.53;;
52320;SDS011;38261;54.090;13.382;2024-02-16T00:08:30;10.37;;;5.27;;
52320;SDS011;38261;54.090;13.382;2024-02-16T00:09:52;9.90;;;5.30;;
52320;SDS011;38261;54.090;13.382;2024-02-16T00:11:14;9.07;;;5.50;;
52320;SDS011;38261;54.090;13.382;2024-02-16T00:12:36;10.40;;;5.80;;
52320;SDS011;38261;54.090;13.382;2024-02-16T00:14:00;8.30;;;5.50;;
52320;SDS011;38261;54.090;13.382;2024-02-16T00:15:22;7.93;;;6.13;;
52320;SDS011;38261;54.090;13.382;2024-02-16T00:16:45;12.63;;;6.00;;
52320;SDS011;38261;54.090;13.382;2024-02-16T00:18:07;11.20;;;6.27;;
52320;SDS011;38261;54.090;13.382;2024-02-16T00:19:30;8.33;;;6.30;;
52320;SDS011;38261;54.090;13.382;2024-02-16T00:20:52;9.80;;;6.20;;
52320;SDS011;38261;54.090;13.382;2024-02-16T00:22:14;14.10;;;6.17;;
52320;SDS011;38261;54.090;13.382;2024-02-16T00:23:37;11.70;;;6.63;;
52320;SDS011;38261;54.090;13.382;2024-02-16T00:24:59;18.23;;;6.07;;
52320;SDS011;38261;54.090;13.382;2024-02-16T00:26:22;10.23;;;6.70;;
52320;SDS011;38261;54.090;13.382;2024-02-16T00:27:44;14.47;;;6.63;;
52320;SDS011;38261;54.090;13.382;2024-02-16T00:29:07;13.13;;;6.73;;
52320;SDS011;38261;54.090;13.382;2024-02-16T00:30:30;13.00;;;6.83;;
52320;SDS011;38261;54.090;13.382;2024-02-16T00:31:52;10.47;;;5.90;;
52320;SDS011;38261;54.090;13.382;2024-02-16T00:33:15;10.23;;;6.67;;
52320;SDS011;38261;54.090;13.382;2024-02-16T00:34:39;14.10;;;6.07;;
52320;SDS011;38261;54.090;13.382;2024-02-16T00:36:02;11.33;;;6.40;;
52320;SDS011;38261;54.090;13.382;2024-02-16T00:37:25;8.57;;;5.80;;
52320;SDS011;38261;54.090;13.382;2024-02-16T00:38:47;7.90;;;5.50;;
52320;SDS011;38261;54.090;13.382;2024-02-16T00:40:10;16.60;;;5.93;;
52320;SDS011;38261;54.090;13.382;2024-02-16T00:41:32;10.83;;;5.67;;
52320;SDS011;38261;54.090;13.382;2024-02-16T00:42:55;11.30;;;6.20;;
52320;SDS011;38261;54.090;13.382;2024-02-16T00:44:18;11.50;;;5.90;;
52320;SDS011;38261;54.090;13.382;2024-02-16T00:45:40;9.77;;;6.20;;
52320;SDS011;38261;54.090;13.382;2024-02-16T00:47:05;11.90;;;6.23;;
52320;SDS011;38261;54.090;13.382;2024-02-16T00:48:28;11.43;;;6.87;;
52320;SDS011;38261;54.090;13.382;2024-02-16T00:49:50;10.07;;;6.57;;
52320;SDS011;38261;54.090;13.382;2024-02-16T00:51:13;10.63;;;6.53;;
52320;SDS011;38261;54.090;13.382;2024-02-16T00:52:35;7.37;;;5.73;;
52320;SDS011;38261;54.090;13.382;2024-02-16T00:53:57;8.70;;;5.87;;
52320;SDS011;38261;54.090;13.382;2024-02-16T00:55:19;9.60;;;6.40;;
52320;SDS011;38261;54.090;13.382;2024-02-16T00:56:41;11.67;;;6.17;;
52320;SDS011;38261;54.090;13.382;2024-02-16T00:58:04;13.83;;;6.90;;
52320;SDS011;38261;54.090;13.382;2024-02-16T00:59:26;10.80;;;6.57;;
52320;SDS011;38261;54.090;13.382;2024-02-16T01:00:48;11.33;;;6.57;;
52320;SDS011;38261;54.090;13.382;2024-02-16T01:02:10;10.20;;;6.03;;
52320;SDS011;38261;54.090;13.382;2024-02-16T01:03:33;10.27;;;7.63;;
52320;SDS011;38261;54.090;13.382;2024-02-16T01:04:55;15.70;;;7.03;;
52320;SDS011;38261;54.090;13.382;2024-02-16T01:06:23;10.90;;;6.70;;
52320;SDS011;38261;54.090;13.382;2024-02-16T01:07:45;14.97;;;7.30;;
52320;SDS011;38261;54.090;13.382;2024-02-16T01:09:08;9.60;;;6.50;;
52320;SDS011;38261;54.090;13.382;2024-02-16T01:10:30;12.20;;;7.37;;
52320;SDS011;38261;54.090;13.382;2024-02-16T01:11:52;13.20;;;6.87;;
52320;SDS011;38261;54.090;13.382;2024-02-16T01:13:15;12.27;;;6.67;;
52320;SDS011;38261;54.090;13.382;2024-02-16T01:14:37;15.43;;;6.63;;
52320;SDS011;38261;54.090;13.382;2024-02-16T01:15:59;10.20;;;6.77;;
52320;SDS011;38261;54.090;13.382;2024-02-16T01:17:21;13.80;;;6.70;;
52320;SDS011;38261;54.090;13.382;2024-02-16T01:18:44;12.87;;;7.07;;
52320;SDS011;38261;54.090;13.382;2024-02-16T01:20:07;11.47;;;6.83;;
52320;SDS011;38261;54.090;13.382;2024-02-16T01:21:33;12.10;;;6.67;;
52320;SDS011;38261;54.090;13.382;2024-02-16T01:22:55;13.47;;;7.20;;
52320;SDS011;38261;54.090;13.382;2024-02-16T01:24:17;16.10;;;6.93;;
52320;SDS011;38261;54.090;13.382;2024-02-16T01:25:39;10.57;;;6.50;;
52320;SDS011;38261;54.090;13.382;2024-02-16T01:27:02;11.00;;;6.90;;
52320;SDS011;38261;54.090;13.382;2024-02-16T01:28:24;10.77;;;7.70;;
52320;SDS011;38261;54.090;13.382;2024-02-16T01:29:46;11.87;;;6.80;;
52320;SDS011;38261;54.090;13.382;2024-02-16T01:31:09;10.87;;;6.93;;
52320;SDS011;38261;54.090;13.382;2024-02-16T01:32:31;10.57;;;7.23;;
52320;SDS011;38261;54.090;13.382;2024-02-16T01:33:54;13.53;;;6.80;;
52320;SDS011;38261;54.090;13.382;2024-02-16T01:35:16;17.20;;;8.17;;
52320;SDS011;38261;54.090;13.382;2024-02-16T01:36:38;10.77;;;6.63;;
52320;SDS011;38261;54.090;13.382;2024-02-16T01:38:01;11.87;;;7.73;;
52320;SDS011;38261;54.090;13.382;2024-02-16T01:39:24;10.97;;;7.23;;
52320;SDS011;38261;54.090;13.382;2024-02-16T01:40:47;11.70;;;7.00;;
52320;SDS011;38261;54.090;13.382;2024-02-16T01:42:09;11.47;;;7.30;;
52320;SDS011;38261;54.090;13.382;2024-02-16T01:43:31;9.63;;;6.80;;
52320;SDS011;38261;54.090;13.382;2024-02-16T01:44:54;11.53;;;7.53;;
52320;SDS011;38261;54.090;13.382;2024-02-16T01:46:17;10.77;;;7.40;;
52320;SDS011;38261;54.090;13.382;2024-02-16T01:47:40;17.27;;;7.60;;
52320;SDS011;38261;54.090;13.382;2024-02-16T01:49:04;16.90;;;7.10;;
52320;SDS011;38261;54.090;13.382;2024-02-16T01:50:27;10.33;;;6.83;;
52320;SDS011;38261;54.090;13.382;2024-02-16T01:51:51;12.70;;;7.70;;
52320;SDS011;38261;54.090;13.382;2024-02-16T01:53:14;11.63;;;7.40;;
52320;SDS011;38261;54.090;13.382;2024-02-16T01:54:41;17.60;;;7.33;;
52320;SDS011;38261;54.090;13.382;2024-02-16T01:56:03;12.97;;;7.33;;
52320;SDS011;38261;54.090;13.382;2024-02-16T01:57:26;11.00;;;7.50;;
52320;SDS011;38261;54.090;13.382;2024-02-16T01:58:49;14.43;;;7.00;;
52320;SDS011;38261;54.090;13.382;2024-02-16T02:00:12;15.30;;;7.73;;
52320;SDS011;38261;54.090;13.382;2024-02-16T02:01:37;10.53;;;6.37;;
52320;SDS011;38261;54.090;13.382;2024-02-16T02:02:59;13.73;;;7.80;;
52320;SDS011;38261;54.090;13.382;2024-02-16T02:04:22;14.60;;;7.73;;
52320;SDS011;38261;54.090;13.382;2024-02-16T02:05:45;10.27;;;7.27;;
52320;SDS011;38261;54.090;13.382;2024-02-16T02:07:17;18.00;;;7.00;;
52320;SDS011;38261;54.090;13.382;2024-02-16T02:08:40;15.23;;;8.13;;
52320;SDS011;38261;54.090;13.382;2024-02-16T02:10:06;12.87;;;8.50;;
52320;SDS011;38261;54.090;13.382;2024-02-16T02:11:29;11.37;;;7.83;;
52320;SDS011;38261;54.090;13.382;2024-02-16T02:12:51;12.37;;;7.50;;
52320;SDS011;38261;54.090;13.382;2024-02-16T02:14:14;12.57;;;7.83;;
52320;SDS011;38261;54.090;13.382;2024-02-16T02:15:36;11.93;;;7.40;;
52320;SDS011;38261;54.090;13.382;2024-02-16T02:17:00;10.43;;;7.80;;
52320;SDS011;38261;54.090;13.382;2024-02-16T02:18:22;13.53;;;7.93;;
52320;SDS011;38261;54.090;13.382;2024-02-16T02:19:45;11.83;;;7.77;;
52320;SDS011;38261;54.090;13.382;2024-02-16T02:21:08;13.20;;;7.53;;
52320;SDS011;38261;54.090;13.382;2024-02-16T02:22:31;13.80;;;7.57;;
52320;SDS011;38261;54.090;13.382;2024-02-16T02:23:53;11.43;;;7.67;;
52320;SDS011;38261;54.090;13.382;2024-02-16T02:25:16;13.07;;;7.43;;
52320;SDS011;38261;54.090;13.382;2024-02-16T02:26:39;12.60;;;7.43;;
52320;SDS011;38261;54.090;13.382;2024-02-16T02:28:02;18.07;;;6.40;;
52320;SDS011;38261;54.090;13.382;2024-02-16T02:29:25;12.10;;;6.60;;
52320;SDS011;38261;54.090;13.382;2024-02-16T02:30:47;12.43;;;6.93;;
52320;SDS011;38261;54.090;13.382;2024-02-16T02:32:10;10.70;;;6.83;;
52320;SDS011;38261;54.090;13.382;2024-02-16T02:33:32;13.13;;;7.53;;
52320;SDS011;38261;54.090;13.382;2024-02-16T02:34:55;11.23;;;7.13;;
52320;SDS011;38261;54.090;13.382;2024-02-16T02:36:17;15.60;;;7.17;;
52320;SDS011;38261;54.090;13.382;2024-02-16T02:37:40;12.83;;;7.13;;
52320;SDS011;38261;54.090;13.382;2024-02-16T02:39:02;13.73;;;6.93;;
52320;SDS011;38261;54.090;13.382;2024-02-16T02:40:25;14.60;;;7.30;;
52320;SDS011;38261;54.090;13.382;2024-02-16T02:41:48;10.60;;;6.63;;
52320;SDS011;38261;54.090;13.382;2024-02-16T02:43:11;11.80;;;6.50;;
52320;SDS011;38261;54.090;13.382;2024-02-16T02:44:33;9.90;;;7.00;;
52320;SDS011;38261;54.090;13.382;2024-02-16T02:45:57;11.50;;;7.07;;
52320;SDS011;38261;54.090;13.382;2024-02-16T02:47:19;12.00;;;6.00;;
52320;SDS011;38261;54.090;13.382;2024-02-16T02:48:43;8.37;;;6.27;;
52320;SDS011;38261;54.090;13.382;2024-02-16T02:50:13;10.30;;;7.00;;
52320;SDS011;38261;54.090;13.382;2024-02-16T02:51:36;14.20;;;7.50;;
52320;SDS011;38261;54.090;13.382;2024-02-16T02:52:58;9.83;;;6.43;;
52320;SDS011;38261;54.090;13.382;2024-02-16T02:54:24;13.53;;;7.17;;
52320;SDS011;38261;54.090;13.382;2024-02-16T02:55:52;9.80;;;7.23;;
52320;SDS011;38261;54.090;13.382;2024-02-16T02:57:14;12.67;;;7.93;;
52320;SDS011;38261;54.090;13.382;2024-02-16T02:58:40;12.27;;;8.00;;
52320;SDS011;38261;54.090;13.382;2024-02-16T03:00:06;9.90;;;6.90;;
52320;SDS011;38261;54.090;13.382;2024-02-16T03:01:33;12.57;;;7.60;;
52320;SDS011;38261;54.090;13.382;2024-02-16T03:02:57;11.00;;;6.63;;
52320;SDS011;38261;54.090;13.382;2024-02-16T03:04:20;12.90;;;8.00;;
52320;SDS011;38261;54.090;13.382;2024-02-16T03:05:42;13.87;;;7.40;;
52320;SDS011;38261;54.090;13.382;2024-02-16T03:07:05;12.50;;;7.53;;
52320;SDS011;38261;54.090;13.382;2024-02-16T03:08:28;15.60;;;7.37;;
52320;SDS011;38261;54.090;13.382;2024-02-16T03:09:53;11.73;;;7.23;;
52320;SDS011;38261;54.090;13.382;2024-02-16T03:11:15;15.33;;;7.27;;
52320;SDS011;38261;54.090;13.382;2024-02-16T03:12:38;11.57;;;6.33;;
52320;SDS011;38261;54.090;13.382;2024-02-16T03:14:01;11.30;;;7.10;;
52320;SDS011;38261;54.090;13.382;2024-02-16T03:15:24;13.60;;;7.10;;
52320;SDS011;38261;54.090;13.382;2024-02-16T03:16:47;12.50;;;7.13;;
52320;SDS011;38261;54.090;13.382;2024-02-16T03:18:09;10.40;;;6.80;;
52320;SDS011;38261;54.090;13.382;2024-02-16T03:19:32;10.90;;;6.43;;
52320;SDS011;38261;54.090;13.382;2024-02-16T03:20:56;12.40;;;7.43;;
52320;SDS011;38261;54.090;13.382;2024-02-16T03:22:21;19.60;;;8.10;;
52320;SDS011;38261;54.090;13.382;2024-02-16T03:23:44;11.03;;;6.93;;
52320;SDS011;38261;54.090;13.382;2024-02-16T03:25:07;10.47;;;7.43;;
52320;SDS011;38261;54.090;13.382;2024-02-16T03:26:30;11.47;;;7.03;;
52320;SDS011;38261;54.090;13.382;2024-02-16T03:27:55;10.97;;;7.10;;
52320;SDS011;38261;54.090;13.382;2024-02-16T03:29:18;15.83;;;7.90;;
52320;SDS011;38261;54.090;13.382;2024-02-16T03:30:41;15.90;;;8.33;;
52320;SDS011;38261;54.090;13.382;2024-02-16T03:32:04;12.00;;;7.60;;
52320;SDS011;38261;54.090;13.382;2024-02-16T03:33:26;12.80;;;7.80;;
52320;SDS011;38261;54.090;13.382;2024-02-16T03:34:49;12.50;;;7.30;;
52320;SDS011;38261;54.090;13.382;2024-02-16T03:36:12;13.83;;;7.23;;
52320;SDS011;38261;54.090;13.382;2024-02-16T03:37:35;11.47;;;7.40;;
52320;SDS011;38261;54.090;13.382;2024-02-16T03:38:58;12.87;;;8.27;;
52320;SDS011;38261;54.090;13.382;2024-02-16T03:40:20;10.23;;;7.20;;
52320;SDS011;38261;54.090;13.382;2024-02-16T03:41:42;11.00;;;7.50;;
52320;SDS011;38261;54.090;13.382;2024-02-16T03:43:05;13.80;;;7.13;;
52320;SDS011;38261;54.090;13.382;2024-02-16T03:44:27;18.20;;;7.50;;
52320;SDS011;38261;54.090;13.382;2024-02-16T03:45:50;11.97;;;7.43;;
52320;SDS011;38261;54.090;13.382;2024-02-16T03:47:12;11.10;;;7.67;;
52320;SDS011;38261;54.090;13.382;2024-02-16T03:48:34;14.13;;;7.47;;
52320;SDS011;38261;54.090;13.382;2024-02-16T03:49:57;11.77;;;7.40;;
52320;SDS011;38261;54.090;13.382;2024-02-16T03:51:19;12.43;;;8.13;;
52320;SDS011;38261;54.090;13.382;2024-02-16T03:52:43;11.87;;;7.00;;
52320;SDS011;38261;54.090;13.382;2024-02-16T03:54:05;11.80;;;7.20;;
52320;SDS011;38261;54.090;13.382;2024-02-16T03:55:28;10.30;;;6.93;;
52320;SDS011;38261;54.090;13.382;2024-02-16T03:56:53;14.00;;;7.50;;
52320;SDS011;38261;54.090;13.382;2024-02-16T03:58:16;13.27;;;6.63;;
52320;SDS011;38261;54.090;13.382;2024-02-16T03:59:39;11.07;;;6.97;;
52320;SDS011;38261;54.090;13.382;2024-02-16T04:01:01;10.93;;;6.70;;
52320;SDS011;38261;54.090;13.382;2024-02-16T04:02:23;13.40;;;7.07;;
52320;SDS011;38261;54.090;13.382;2024-02-16T04:03:46;9.53;;;6.37;;
52320;SDS011;38261;54.090;13.382;2024-02-16T04:05:13;12.30;;;7.57;;
52320;SDS011;38261;54.090;13.382;2024-02-16T04:06:36;11.87;;;7.37;;
52320;SDS011;38261;54.090;13.382;2024-02-16T04:07:58;21.50;;;7.30;;
52320;SDS011;38261;54.090;13.382;2024-02-16T04:09:26;20.60;;;8.97;;
52320;SDS011;38261;54.090;13.382;2024-02-16T04:10:49;10.50;;;7.17;;
52320;SDS011;38261;54.090;13.382;2024-02-16T04:12:11;11.07;;;7.83;;
52320;SDS011;38261;54.090;13.382;2024-02-16T04:13:34;14.77;;;7.57;;
52320;SDS011;38261;54.090;13.382;2024-02-16T04:14:56;10.37;;;6.80;;
52320;SDS011;38261;54.090;13.382;2024-02-16T04:16:19;14.83;;;7.03;;
52320;SDS011;38261;54.090;13.382;2024-02-16T04:17:43;10.77;;;7.53;;
52320;SDS011;38261;54.090;13.382;2024-02-16T04:19:09;11.60;;;7.13;;
52320;SDS011;38261;54.090;13.382;2024-02-16T04:20:32;15.03;;;7.70;;
52320;SDS011;38261;54.090;13.382;2024-02-16T04:21:55;15.07;;;8.27;;
52320;SDS011;38261;54.090;13.382;2024-02-16T04:23:21;15.05;;;8.40;;
52320;SDS011;38261;54.090;13.382;2024-02-16T04:24:43;14.67;;;8.60;;
52320;SDS011;38261;54.090;13.382;2024-02-16T04:26:06;9.67;;;6.73;;
52320;SDS011;38261;54.090;13.382;2024-02-16T04:27:28;11.20;;;7.53;;
52320;SDS011;38261;54.090;13.382;2024-02-16T04:28:50;11.93;;;8.53;;
52320;SDS011;38261;54.090;13.382;2024-02-16T04:30:13;13.60;;;7.17;;
52320;SDS011;38261;54.090;13.382;2024-02-16T04:31:35;12.33;;;7.90;;
52320;SDS011;38261;54.090;13.382;2024-02-16T04:32:58;14.27;;;7.03;;
52320;SDS011;38261;54.090;13.382;2024-02-16T04:34:20;14.50;;;7.33;;
52320;SDS011;38261;54.090;13.382;2024-02-16T04:35:43;14.93;;;8.10;;
52320;SDS011;38261;54.090;13.382;2024-02-16T04:37:08;10.77;;;7.20;;
52320;SDS011;38261;54.090;13.382;2024-02-16T04:38:31;10.60;;;7.60;;
52320;SDS011;38261;54.090;13.382;2024-02-16T04:39:54;13.10;;;8.60;;
52320;SDS011;38261;54.090;13.382;2024-02-16T04:41:19;15.40;;;7.53;;
52320;SDS011;38261;54.090;13.382;2024-02-16T04:42:41;12.13;;;7.90;;
52320;SDS011;38261;54.090;13.382;2024-02-16T04:44:04;12.50;;;7.53;;
52320;SDS011;38261;54.090;13.382;2024-02-16T04:45:26;12.00;;;7.70;;
52320;SDS011;38261;54.090;13.382;2024-02-16T04:46:52;11.20;;;7.37;;
52320;SDS011;38261;54.090;13.382;2024-02-16T04:48:14;11.63;;;7.23;;
52320;SDS011;38261;54.090;13.382;2024-02-16T04:49:37;13.70;;;8.00;;
52320;SDS011;38261;54.090;13.382;2024-02-16T04:51:00;11.03;;;8.03;;
52320;SDS011;38261;54.090;13.382;2024-02-16T04:52:23;12.03;;;7.30;;
52320;SDS011;38261;54.090;13.382;2024-02-16T04:53:50;11.03;;;6.77;;
52320;SDS011;38261;54.090;13.382;2024-02-16T04:55:13;8.10;;;6.33;;
52320;SDS011;38261;54.090;13.382;2024-02-16T04:56:38;8.67;;;6.30;;
52320;SDS011;38261;54.090;13.382;2024-02-16T04:58:01;7.70;;;5.83;;
52320;SDS011;38261;54.090;13.382;2024-02-16T04:59:26;9.20;;;5.63;;
52320;SDS011;38261;54.090;13.382;2024-02-16T05:00:49;11.77;;;6.67;;
52320;SDS011;38261;54.090;13.382;2024-02-16T05:02:12;9.40;;;6.77;;
52320;SDS011;38261;54.090;13.382;2024-02-16T05:03:35;11.23;;;6.67;;
52320;SDS011;38261;54.090;13.382;2024-02-16T05:04:59;9.60;;;5.97;;
52320;SDS011;38261;54.090;13.382;2024-02-16T05:06:25;9.30;;;6.07;;
52320;SDS011;38261;54.090;13.382;2024-02-16T05:07:48;10.70;;;6.67;;
52320;SDS011;38261;54.090;13.382;2024-02-16T05:09:11;11.90;;;6.00;;
52320;SDS011;38261;54.090;13.382;2024-02-16T05:10:38;10.70;;;5.07;;
52320;SDS011;38261;54.090;13.382;2024-02-16T05:12:01;7.50;;;5.23;;
52320;SDS011;38261;54.090;13.382;2024-02-16T05:13:24;13.60;;;5.83;;
52320;SDS011;38261;54.090;13.382;2024-02-16T05:14:50;8.20;;;5.70;;
52320;SDS011;38261;54.090;13.382;2024-02-16T05:16:14;15.27;;;6.10;;
52320;SDS011;38261;54.090;13.382;2024-02-16T05:17:36;8.40;;;5.97;;
52320;SDS011;38261;54.090;13.382;2024-02-16T05:18:59;8.63;;;5.00;;
52320;SDS011;38261;54.090;13.382;2024-02-16T05:20:21;8.50;;;6.07;;
52320;SDS011;38261;54.090;13.382;2024-02-16T05:21:44;10.10;;;6.10;;
52320;SDS011;38261;54.090;13.382;2024-02-16T05:23:06;10.00;;;5.30;;
52320;SDS011;38261;54.090;13.382;2024-02-16T05:24:28;7.83;;;5.27;;
52320;SDS011;38261;54.090;13.382;2024-02-16T05:25:51;10.30;;;5.47;;
52320;SDS011;38261;54.090;13.382;2024-02-16T05:27:15;9.57;;;5.87;;
52320;SDS011;38261;54.090;13.382;2024-02-16T05:28:38;9.40;;;5.10;;
52320;SDS011;38261;54.090;13.382;2024-02-16T05:30:01;7.83;;;5.10;;
52320;SDS011;38261;54.090;13.382;2024-02-16T05:31:23;8.23;;;5.07;;
52320;SDS011;38261;54.090;13.382;2024-02-16T05:32:46;9.37;;;5.43;;
52320;SDS011;38261;54.090;13.382;2024-02-16T05:34:09;9.40;;;5.07;;
52320;SDS011;38261;54.090;13.382;2024-02-16T05:35:32;12.37;;;6.03;;
52320;SDS011;38261;54.090;13.382;2024-02-16T05:36:56;8.47;;;5.27;;
52320;SDS011;38261;54.090;13.382;2024-02-16T05:38:18;7.90;;;5.60;;
52320;SDS011;38261;54.090;13.382;2024-02-16T05:39:54;10.07;;;5.40;;
52320;SDS011;38261;54.090;13.382;2024-02-16T05:41:29;6.30;;;4.30;;
52320;SDS011;38261;54.090;13.382;2024-02-16T05:42:51;7.40;;;4.93;;
52320;SDS011;38261;54.090;13.382;2024-02-16T05:44:14;9.70;;;4.83;;
52320;SDS011;38261;54.090;13.382;2024-02-16T05:45:36;7.20;;;5.20;;
52320;SDS011;38261;54.090;13.382;2024-02-16T05:46:59;7.47;;;5.33;;
52320;SDS011;38261;54.090;13.382;2024-02-16T05:48:22;9.70;;;4.97;;
52320;SDS011;38261;54.090;13.382;2024-02-16T05:49:46;9.50;;;5.30;;
52320;SDS011;38261;54.090;13.382;2024-02-16T05:51:08;8.03;;;5.60;;
52320;SDS011;38261;54.090;13.382;2024-02-16T05:52:34;8.77;;;5.77;;
52320;SDS011;38261;54.090;13.382;2024-02-16T05:53:57;10.30;;;5.23;;
52320;SDS011;38261;54.090;13.382;2024-02-16T05:55:20;6.07;;;4.63;;
52320;SDS011;38261;54.090;13.382;2024-02-16T05:56:42;6.20;;;4.90;;
52320;SDS011;38261;54.090;13.382;2024-02-16T05:58:06;8.07;;;5.47;;
52320;SDS011;38261;54.090;13.382;2024-02-16T05:59:28;8.43;;;5.40;;
52320;SDS011;38261;54.090;13.382;2024-02-16T06:00:51;9.87;;;5.27;;
52320;SDS011;38261;54.090;13.382;2024-02-16T06:02:14;7.23;;;5.50;;
52320;SDS011;38261;54.090;13.382;2024-02-16T06:03:36;7.07;;;5.33;;
52320;SDS011;38261;54.090;13.382;2024-02-16T06:04:59;7.87;;;5.20;;
52320;SDS011;38261;54.090;13.382;2024-02-16T06:06:22;13.73;;;5.07;;
52320;SDS011;38261;54.090;13.382;2024-02-16T06:07:44;8.10;;;5.27;;
52320;SDS011;38261;54.090;13.382;2024-02-16T06:09:06;8.23;;;4.57;;
52320;SDS011;38261;54.090;13.382;2024-02-16T06:10:29;8.20;;;4.33;;
52320;SDS011;38261;54.090;13.382;2024-02-16T06:11:51;8.57;;;4.43;;
52320;SDS011;38261;54.090;13.382;2024-02-16T06:13:14;14.20;;;4.50;;
52320;SDS011;38261;54.090;13.382;2024-02-16T06:14:36;9.60;;;5.83;;
52320;SDS011;38261;54.090;13.382;2024-02-16T06:15:59;8.70;;;4.90;;
52320;SDS011;38261;54.090;13.382;2024-02-16T06:17:21;14.27;;;4.87;;
52320;SDS011;38261;54.090;13.382;2024-02-16T06:18:44;9.97;;;6.30;;
52320;SDS011;38261;54.090;13.382;2024-02-16T06:20:07;10.90;;;4.93;;
52320;SDS011;38261;54.090;13.382;2024-02-16T06:21:31;7.07;;;4.50;;
52320;SDS011;38261;54.090;13.382;2024-02-16T06:22:54;8.70;;;5.70;;
52320;SDS011;38261;54.090;13.382;2024-02-16T06:24:16;7.53;;;5.53;;
52320;SDS011;38261;54.090;13.382;2024-02-16T06:25:41;9.43;;;5.07;;
52320;SDS011;38261;54.090;13.382;2024-02-16T06:27:04;10.43;;;4.87;;
52320;SDS011;38261;54.090;13.382;2024-02-16T06:28:27;8.50;;;5.40;;
52320;SDS011;38261;54.090;13.382;2024-02-16T06:29:49;8.60;;;5.50;;
52320;SDS011;38261;54.090;13.382;2024-02-16T06:31:12;7.23;;;5.10;;
52320;SDS011;38261;54.090;13.382;2024-02-16T06:32:36;6.80;;;4.77;;
52320;SDS011;38261;54.090;13.382;2024-02-16T06:33:58;7.50;;;5.13;;
52320;SDS011;38261;54.090;13.382;2024-02-16T06:35:20;7.03;;;4.37;;
52320;SDS011;38261;54.090;13.382;2024-02-16T06:38:53;8.43;;;5.23;;
52320;SDS011;38261;54.090;13.382;2024-02-16T06:40:16;7.03;;;4.80;;
52320;SDS011;38261;54.090;13.382;2024-02-16T06:41:39;6.17;;;4.50;;
52320;SDS011;38261;54.090;13.382;2024-02-16T06:43:01;7.33;;;4.80;;
52320;SDS011;38261;54.090;13.382;2024-02-16T06:44:26;6.13;;;3.87;;
52320;SDS011;38261;54.090;13.382;2024-02-16T06:45:48;8.70;;;5.23;;
52320;SDS011;38261;54.090;13.382;2024-02-16T06:47:10;10.40;;;5.60;;
52320;SDS011;38261;54.090;13.382;2024-02-16T06:48:33;10.53;;;5.33;;
52320;SDS011;38261;54.090;13.382;2024-02-16T06:49:55;11.23;;;5.30;;
52320;SDS011;38261;54.090;13.382;2024-02-16T06:51:17;8.60;;;5.27;;
52320;SDS011;38261;54.090;13.382;2024-02-16T06:52:40;7.50;;;4.90;;
52320;SDS011;38261;54.090;13.382;2024-02-16T06:54:03;8.57;;;5.30;;
52320;SDS011;38261;54.090;13.382;2024-02-16T06:55:25;7.37;;;4.90;;
52320;SDS011;38261;54.090;13.382;2024-02-16T06:56:47;7.43;;;5.53;;
52320;SDS011;38261;54.090;13.382;2024-02-16T06:58:10;9.23;;;5.43;;
52320;SDS011;38261;54.090;13.382;2024-02-16T06:59:32;8.70;;;5.47;;
52320;SDS011;38261;54.090;13.382;2024-02-16T07:00:54;8.70;;;5.10;;
52320;SDS011;38261;54.090;13.382;2024-02-16T07:02:17;8.70;;;5.10;;
52320;SDS011;38261;54.090;13.382;2024-02-16T07:03:39;7.97;;;4.97;;
52320;SDS011;38261;54.090;13.382;2024-02-16T07:05:05;9.83;;;5.10;;
52320;SDS011;38261;54.090;13.382;2024-02-16T07:06:27;7.87;;;4.37;;
52320;SDS011;38261;54.090;13.382;2024-02-16T07:07:50;8.13;;;5.37;;
52320;SDS011;38261;54.090;13.382;2024-02-16T07:09:12;10.00;;;5.23;;
52320;SDS011;38261;54.090;13.382;2024-02-16T07:10:37;12.53;;;5.30;;
52320;SDS011;38261;54.090;13.382;2024-02-16T07:12:00;13.40;;;5.87;;
52320;SDS011;38261;54.090;13.382;2024-02-16T07:13:24;8.70;;;5.00;;
52320;SDS011;38261;54.090;13.382;2024-02-16T07:14:46;12.43;;;6.03;;
52320;SDS011;38261;54.090;13.382;2024-02-16T07:16:11;6.40;;;4.63;;
52320;SDS011;38261;54.090;13.382;2024-02-16T07:17:34;7.20;;;5.40;;
52320;SDS011;38261;54.090;13.382;2024-02-16T07:18:57;8.63;;;5.27;;
52320;SDS011;38261;54.090;13.382;2024-02-16T07:20:19;7.73;;;4.63;;
52320;SDS011;38261;54.090;13.382;2024-02-16T07:21:42;7.30;;;5.40;;
52320;SDS011;38261;54.090;13.382;2024-02-16T07:23:06;9.53;;;6.17;;
52320;SDS011;38261;54.090;13.382;2024-02-16T07:24:28;7.80;;;5.13;;
52320;SDS011;38261;54.090;13.382;2024-02-16T07:25:50;7.40;;;4.60;;
52320;SDS011;38261;54.090;13.382;2024-02-16T07:27:12;8.20;;;5.13;;
52320;SDS011;38261;54.090;13.382;2024-02-16T07:28:35;14.10;;;5.73;;
52320;SDS011;38261;54.090;13.382;2024-02-16T07:29:57;8.10;;;5.50;;
52320;SDS011;38261;54.090;13.382;2024-02-16T07:31:19;8.20;;;4.87;;
52320;SDS011;38261;54.090;13.382;2024-02-16T07:32:41;7.20;;;5.60;;
52320;SDS011;38261;54.090;13.382;2024-02-16T07:34:05;8.53;;;4.83;;
52320;SDS011;38261;54.090;13.382;2024-02-16T07:35:27;5.97;;;5.00;;
52320;SDS011;38261;54.090;13.382;2024-02-16T07:36:50;8.00;;;5.63;;
52320;SDS011;38261;54.090;13.382;2024-02-16T07:38:13;9.60;;;5.57;;
52320;SDS011;38261;54.090;13.382;2024-02-16T07:39:35;8.83;;;6.10;;
52320;SDS011;38261;54.090;13.382;2024-02-16T07:40:57;10.93;;;5.20;;
52320;SDS011;38261;54.090;13.382;2024-02-16T07:42:20;7.10;;;5.13;;
52320;SDS011;38261;54.090;13.382;2024-02-16T07:43:43;9.83;;;5.73;;
52320;SDS011;38261;54.090;13.382;2024-02-16T07:45:05;10.93;;;6.10;;
52320;SDS011;38261;54.090;13.382;2024-02-16T07:46:28;7.20;;;5.17;;
52320;SDS011;38261;54.090;13.382;2024-02-16T07:47:53;8.20;;;6.03;;
52320;SDS011;38261;54.090;13.382;2024-02-16T07:49:15;8.10;;;5.87;;
52320;SDS011;38261;54.090;13.382;2024-02-16T07:50:38;8.50;;;5.87;;
52320;SDS011;38261;54.090;13.382;2024-02-16T07:52:00;8.97;;;5.70;;
52320;SDS011;38261;54.090;13.382;2024-02-16T07:53:22;10.00;;;5.63;;
52320;SDS011;38261;54.090;13.382;2024-02-16T07:54:44;12.70;;;5.43;;
52320;SDS011;38261;54.090;13.382;2024-02-16T07:56:06;9.27;;;5.70;;
52320;SDS011;38261;54.090;13.382;2024-02-16T07:57:29;11.97;;;5.80;;
52320;SDS011;38261;54.090;13.382;2024-02-16T07:58:52;7.53;;;4.93;;
52320;SDS011;38261;54.090;13.382;2024-02-16T08:00:14;9.50;;;5.73;;
52320;SDS011;38261;54.090;13.382;2024-02-16T08:01:38;8.27;;;5.73;;
52320;SDS011;38261;54.090;13.382;2024-02-16T08:03:00;7.93;;;5.63;;
52320;SDS011;38261;54.090;13.382;2024-02-16T08:04:22;9.23;;;7.03;;
52320;SDS011;38261;54.090;13.382;2024-02-16T08:05:44;9.63;;;5.50;;
52320;SDS011;38261;54.090;13.382;2024-02-16T08:07:07;7.67;;;5.37;;
52320;SDS011;38261;54.090;13.382;2024-02-16T08:08:29;9.50;;;5.37;;
52320;SDS011;38261;54.090;13.382;2024-02-16T08:09:51;8.70;;;5.80;;